Time;durP1;ratioP1;P1;durP2;ratioP2;P2;SDS_P1;SDS_P2;PMS_P1;PMS_P2;Temp;Humidity;BMP_temperature;BMP_pressure;BME280_temperature;BME280_humidity;BME280_pressure;Samples;Min_cycle;Max_cycle;Signal;HPM_P1;HPM_P2
2021/12/20 00:00:01;;;;;;;;;29.75;27.50;;;;;;;;5078550;28;45319;-56
2021/12/20 00:02:26;;;;;;;;;37.25;31.25;;;;;;;;5079078;27;45456;-52
2021/12/20 00:04:53;;;;;;;;;32.50;27.25;;;;;;;;5078878;28;45373;-53
2021/12/20 00:07:18;;;;;;;;;32.25;30.00;;;;;;;;5079136;27;45390;-51
2021/12/20 00:09:43;;;;;;;;;31.50;29.25;;;;;;;;5078589;27;45491;-54
2021/12/20 00:12:09;;;;;;;;;24.25;22.50;;;;;;;;5078751;28;46095;-57
2021/12/20 00:14:34;;;;;;;;;26.50;24.00;;;;;;;;5078841;28;45212;-51
2021/12/20 00:16:59;;;;;;;;;32.50;31.50;;;;;;;;5078748;28;45168;-53
2021/12/20 00:19:25;;;;;;;;;34.75;32.00;;;;;;;;5079043;28;45356;-51
2021/12/20 00:21:51;;;;;;;;;28.00;23.50;;;;;;;;5078116;27;45345;-55
2021/12/20 00:24:18;;;;;;;;;30.00;29.50;;;;;;;;5078742;28;45218;-53
2021/12/20 00:26:43;;;;;;;;;34.50;30.25;;;;;;;;5078721;27;45294;-51
2021/12/20 00:29:09;;;;;;;;;28.25;28.25;;;;;;;;5078561;28;45196;-52
2021/12/20 00:31:34;;;;;;;;;33.50;27.25;;;;;;;;5078265;28;46715;-54
2021/12/20 00:33:59;;;;;;;;;32.25;30.75;;;;;;;;5078611;28;45310;-51
2021/12/20 00:36:26;;;;;;;;;33.50;29.50;;;;;;;;5078457;28;45286;-53
2021/12/20 00:41:35;;;;;;;;;22.00;21.25;;;;;;;;5078433;28;45726;-49
2021/12/20 00:44:01;;;;;;;;;29.75;27.00;;;;;;;;5077853;28;45331;-52
2021/12/20 00:46:26;;;;;;;;;24.25;23.25;;;;;;;;5078646;27;45329;-55
2021/12/20 00:48:51;;;;;;;;;30.00;26.25;;;;;;;;5078403;27;45535;-52
2021/12/20 00:51:17;;;;;;;;;25.25;22.00;;;;;;;;5078326;28;45347;-52
2021/12/20 00:53:42;;;;;;;;;24.25;21.75;;;;;;;;5077809;28;45370;-51
2021/12/20 00:56:07;;;;;;;;;26.75;22.75;;;;;;;;5078263;28;45309;-56
2021/12/20 00:58:33;;;;;;;;;17.25;16.00;;;;;;;;5078382;28;45508;-57
2021/12/20 01:00:58;;;;;;;;;26.00;24.75;;;;;;;;5078148;28;45340;-54
2021/12/20 01:03:24;;;;;;;;;25.75;24.50;;;;;;;;5078100;27;45357;-55
2021/12/20 01:05:49;;;;;;;;;21.25;21.25;;;;;;;;5077222;27;45696;-53
2021/12/20 01:08:15;;;;;;;;;22.00;19.25;;;;;;;;5077759;28;45216;-50
2021/12/20 01:10:44;;;;;;;;;25.50;24.50;;;;;;;;5077760;27;45999;-54
2021/12/20 01:13:09;;;;;;;;;23.50;22.00;;;;;;;;5077721;27;45483;-53
2021/12/20 01:15:37;;;;;;;;;20.75;19.50;;;;;;;;5075811;28;45869;-52
2021/12/20 01:18:04;;;;;;;;;22.00;21.00;;;;;;;;5077855;27;45585;-55
2021/12/20 01:20:30;;;;;;;;;23.50;20.25;;;;;;;;5077577;27;47623;-55
2021/12/20 01:22:56;;;;;;;;;25.75;21.50;;;;;;;;5077908;27;45357;-52
2021/12/20 01:25:22;;;;;;;;;28.75;26.75;;;;;;;;5077780;27;45303;-56
2021/12/20 01:27:47;;;;;;;;;24.25;22.00;;;;;;;;5077376;27;45164;-55
2021/12/20 01:30:13;;;;;;;;;25.25;21.25;;;;;;;;5077748;27;45241;-57
2021/12/20 01:32:39;;;;;;;;;24.50;23.50;;;;;;;;5077711;27;45284;-55
2021/12/20 01:35:05;;;;;;;;;26.50;21.75;;;;;;;;5077650;27;45444;-52
2021/12/20 01:37:30;;;;;;;;;29.75;26.00;;;;;;;;5077450;27;45541;-55
2021/12/20 01:39:58;;;;;;;;;30.75;27.00;;;;;;;;5077595;28;46069;-54
2021/12/20 01:42:23;;;;;;;;;22.50;22.50;;;;;;;;5076291;28;45524;-53
2021/12/20 01:44:49;;;;;;;;;29.25;27.50;;;;;;;;5077671;27;45408;-54
2021/12/20 01:47:15;;;;;;;;;25.00;22.25;;;;;;;;5077517;27;45418;-50
2021/12/20 01:49:54;;;;;;;;;20.75;20.50;;;;;;;;5076818;27;45914;-57
2021/12/20 01:52:22;;;;;;;;;26.75;25.75;;;;;;;;5076135;28;45437;-52
2021/12/20 01:54:47;;;;;;;;;25.00;22.25;;;;;;;;5076199;28;45355;-54
2021/12/20 01:57:12;;;;;;;;;22.75;22.50;;;;;;;;5077221;28;45302;-56
2021/12/20 01:59:38;;;;;;;;;26.25;25.25;;;;;;;;5076663;28;46114;-57
2021/12/20 02:02:04;;;;;;;;;32.25;25.75;;;;;;;;5077310;27;45377;-54
2021/12/20 02:04:30;;;;;;;;;28.50;26.25;;;;;;;;5077348;27;45494;-52
2021/12/20 02:06:55;;;;;;;;;28.75;26.50;;;;;;;;5077328;27;45437;-53
2021/12/20 02:09:20;;;;;;;;;26.25;23.75;;;;;;;;5077152;27;45452;-56
2021/12/20 02:11:47;;;;;;;;;29.50;26.00;;;;;;;;5076352;28;45330;-54
2021/12/20 02:14:13;;;;;;;;;22.25;21.00;;;;;;;;5077249;27;45291;-52
2021/12/20 02:16:40;;;;;;;;;25.00;22.75;;;;;;;;5076769;27;45611;-53
2021/12/20 02:19:08;;;;;;;;;33.00;29.50;;;;;;;;5076441;27;45337;-55
2021/12/20 02:21:33;;;;;;;;;32.75;29.25;;;;;;;;5076429;27;45303;-48
2021/12/20 02:23:58;;;;;;;;;34.50;28.75;;;;;;;;5077068;27;45297;-50
2021/12/20 02:26:24;;;;;;;;;30.00;29.00;;;;;;;;5076799;28;45538;-53
2021/12/20 02:28:52;;;;;;;;;34.00;31.50;;;;;;;;5076687;27;46045;-54
2021/12/20 02:39:16;;;;;;;;;34.00;33.00;;;;;;;;5076503;28;45388;-52
2021/12/20 02:41:42;;;;;;;;;34.25;30.50;;;;;;;;5076620;28;45404;-54
2021/12/20 02:44:15;;;;;;;;;35.75;33.00;;;;;;;;5076323;27;45397;-54
2021/12/20 02:49:08;;;;;;;;;40.75;37.50;;;;;;;;5076413;28;45444;-55
2021/12/20 02:51:33;;;;;;;;;34.25;34.25;;;;;;;;5076628;27;45252;-53
2021/12/20 02:53:59;;;;;;;;;30.75;28.75;;;;;;;;5076399;27;45268;-50
2021/12/20 02:56:25;;;;;;;;;34.75;31.00;;;;;;;;5076246;27;45258;-51
2021/12/20 02:58:50;;;;;;;;;35.00;34.25;;;;;;;;5076562;28;45263;-53
2021/12/20 03:01:16;;;;;;;;;39.75;37.25;;;;;;;;5076612;27;45291;-53
2021/12/20 03:03:41;;;;;;;;;40.00;36.50;;;;;;;;5076816;27;45230;-54
2021/12/20 03:06:18;;;;;;;;;42.00;39.50;;;;;;;;5076047;27;45221;-53
2021/12/20 03:08:46;;;;;;;;;43.00;37.00;;;;;;;;5076517;27;45610;-52
2021/12/20 03:11:11;;;;;;;;;34.00;32.00;;;;;;;;5076181;28;45500;-53
2021/12/20 03:13:36;;;;;;;;;37.50;34.25;;;;;;;;5076338;27;45425;-53
2021/12/20 03:16:02;;;;;;;;;40.75;37.25;;;;;;;;5074893;28;45352;-53
2021/12/20 03:18:27;;;;;;;;;39.50;35.00;;;;;;;;5076072;27;45409;-50
2021/12/20 03:20:52;;;;;;;;;40.00;37.00;;;;;;;;5076248;28;45440;-49
2021/12/20 03:23:17;;;;;;;;;41.00;36.75;;;;;;;;5075106;28;45471;-49
2021/12/20 03:25:43;;;;;;;;;39.00;32.25;;;;;;;;5076273;28;45486;-49
2021/12/20 03:28:08;;;;;;;;;49.25;39.75;;;;;;;;5075646;28;46778;-51
2021/12/20 03:30:33;;;;;;;;;35.50;33.50;;;;;;;;5078107;27;45298;-49
2021/12/20 03:32:58;;;;;;;;;43.25;39.25;;;;;;;;5079923;28;45379;-54
2021/12/20 03:35:24;;;;;;;;;35.00;33.75;;;;;;;;5079786;28;45522;-54
2021/12/20 03:37:49;;;;;;;;;50.25;38.75;;;;;;;;5079292;28;46395;-51
2021/12/20 03:40:14;;;;;;;;;44.00;40.25;;;;;;;;5079157;28;45277;-52
2021/12/20 03:42:42;;;;;;;;;37.50;34.00;;;;;;;;5079683;28;45357;-52
2021/12/20 03:45:08;;;;;;;;;37.75;35.50;;;;;;;;5079613;28;45477;-54
2021/12/20 03:47:34;;;;;;;;;35.00;29.50;;;;;;;;5079339;27;45459;-51
2021/12/20 03:49:59;;;;;;;;;37.50;33.50;;;;;;;;5079059;28;45337;-50
2021/12/20 03:52:24;;;;;;;;;39.00;36.50;;;;;;;;5078204;28;45345;-54
2021/12/20 03:54:49;;;;;;;;;40.00;34.25;;;;;;;;5079004;28;45604;-55
2021/12/20 03:57:14;;;;;;;;;36.75;34.25;;;;;;;;5078784;27;45401;-54
2021/12/20 03:59:40;;;;;;;;;37.50;36.25;;;;;;;;5079401;28;45374;-51
2021/12/20 04:02:06;;;;;;;;;36.00;35.00;;;;;;;;5077124;27;45468;-57
2021/12/20 04:04:31;;;;;;;;;48.00;40.50;;;;;;;;5079331;28;45299;-55
2021/12/20 04:06:56;;;;;;;;;39.25;38.25;;;;;;;;5079026;28;45300;-51
2021/12/20 04:09:21;;;;;;;;;42.00;36.75;;;;;;;;5079198;28;45406;-53
2021/12/20 04:11:47;;;;;;;;;43.75;39.25;;;;;;;;5078471;28;45374;-50
2021/12/20 04:14:12;;;;;;;;;42.25;37.50;;;;;;;;5079310;28;45347;-54
2021/12/20 04:16:37;;;;;;;;;47.25;40.75;;;;;;;;5078890;28;45264;-51
2021/12/20 04:19:03;;;;;;;;;41.25;36.50;;;;;;;;5079030;28;45290;-52
2021/12/20 04:21:28;;;;;;;;;39.50;36.75;;;;;;;;5079105;27;45324;-51
2021/12/20 04:23:53;;;;;;;;;39.00;37.25;;;;;;;;5078490;27;45337;-53
2021/12/20 04:26:19;;;;;;;;;48.25;39.75;;;;;;;;5078425;27;46083;-54
2021/12/20 04:28:44;;;;;;;;;45.00;37.50;;;;;;;;5078836;27;45262;-49
2021/12/20 04:31:09;;;;;;;;;42.50;40.00;;;;;;;;5079250;27;45252;-52
2021/12/20 04:33:35;;;;;;;;;49.00;40.75;;;;;;;;5078358;28;45486;-55
2021/12/20 04:36:00;;;;;;;;;52.25;40.25;;;;;;;;5078778;28;46191;-49
2021/12/20 04:38:28;;;;;;;;;44.50;39.50;;;;;;;;5078841;28;45343;-55
2021/12/20 04:40:53;;;;;;;;;44.50;39.00;;;;;;;;5078913;27;45226;-50
2021/12/20 04:43:18;;;;;;;;;49.00;40.00;;;;;;;;5078852;27;45234;-50
2021/12/20 04:45:44;;;;;;;;;43.75;40.00;;;;;;;;5078172;28;46350;-54
2021/12/20 04:48:09;;;;;;;;;54.00;41.25;;;;;;;;5078766;27;45327;-52
2021/12/20 04:50:34;;;;;;;;;42.00;38.75;;;;;;;;5078755;28;45357;-57
2021/12/20 04:53:00;;;;;;;;;39.25;36.75;;;;;;;;5078666;27;45493;-54
2021/12/20 04:55:26;;;;;;;;;49.00;41.75;;;;;;;;5077667;28;45443;-53
2021/12/20 04:57:52;;;;;;;;;47.25;40.50;;;;;;;;5078448;27;45468;-55
2021/12/20 05:00:19;;;;;;;;;36.25;36.00;;;;;;;;5078228;27;45422;-54
2021/12/20 05:02:44;;;;;;;;;42.50;37.00;;;;;;;;5078427;27;45409;-51
2021/12/20 05:05:10;;;;;;;;;46.00;38.25;;;;;;;;5078082;27;45889;-55
2021/12/20 05:07:37;;;;;;;;;34.50;33.75;;;;;;;;5077517;27;45177;-50
2021/12/20 05:10:03;;;;;;;;;44.75;39.75;;;;;;;;5078371;27;45373;-55
2021/12/20 05:12:28;;;;;;;;;41.00;38.25;;;;;;;;5078154;27;45331;-49
2021/12/20 05:14:53;;;;;;;;;41.00;36.75;;;;;;;;5078009;28;45368;-54
2021/12/20 05:17:18;;;;;;;;;43.00;36.50;;;;;;;;5077359;28;45426;-54
2021/12/20 05:19:44;;;;;;;;;37.75;30.50;;;;;;;;5078152;28;45270;-54
2021/12/20 05:22:10;;;;;;;;;40.75;37.25;;;;;;;;5076994;28;45277;-53
2021/12/20 05:24:35;;;;;;;;;41.50;37.75;;;;;;;;5077822;27;46004;-53
2021/12/20 05:27:01;;;;;;;;;40.75;33.75;;;;;;;;5077920;27;45283;-53
2021/12/20 05:29:26;;;;;;;;;33.75;31.25;;;;;;;;5077553;28;45293;-54
2021/12/20 05:31:52;;;;;;;;;41.50;34.00;;;;;;;;5077946;28;45247;-48
2021/12/20 05:34:17;;;;;;;;;36.50;31.50;;;;;;;;5077791;27;46060;-54
2021/12/20 05:36:43;;;;;;;;;33.50;28.50;;;;;;;;5077739;27;45397;-53
2021/12/20 05:39:08;;;;;;;;;36.00;30.75;;;;;;;;5077571;27;45306;-50
2021/12/20 05:41:33;;;;;;;;;36.50;32.50;;;;;;;;5077615;28;45286;-50
2021/12/20 05:43:58;;;;;;;;;32.50;31.25;;;;;;;;5077543;27;46274;-53
2021/12/20 05:46:24;;;;;;;;;40.25;36.50;;;;;;;;5077665;28;45276;-51
2021/12/20 05:48:49;;;;;;;;;35.50;33.50;;;;;;;;5077919;28;45278;-53
2021/12/20 05:51:14;;;;;;;;;32.75;32.75;;;;;;;;5077008;28;45329;-56
2021/12/20 05:53:39;;;;;;;;;31.50;29.00;;;;;;;;5076782;28;45480;-54
2021/12/20 05:56:04;;;;;;;;;32.25;30.00;;;;;;;;5077501;28;45485;-53
2021/12/20 05:58:29;;;;;;;;;36.75;31.00;;;;;;;;5077627;28;45220;-56
2021/12/20 06:00:55;;;;;;;;;35.25;30.50;;;;;;;;5077376;28;45306;-55
2021/12/20 06:03:20;;;;;;;;;35.25;30.25;;;;;;;;5077051;28;45610;-53
2021/12/20 06:05:45;;;;;;;;;28.50;27.00;;;;;;;;5077309;28;45284;-56
2021/12/20 06:08:11;;;;;;;;;27.00;24.50;;;;;;;;5077453;28;45427;-53
2021/12/20 06:10:36;;;;;;;;;36.25;31.25;;;;;;;;5077176;27;45400;-54
2021/12/20 06:13:02;;;;;;;;;38.50;33.50;;;;;;;;5076478;27;45807;-52
2021/12/20 06:15:28;;;;;;;;;32.50;29.50;;;;;;;;5077106;27;45596;-55
2021/12/20 06:17:53;;;;;;;;;38.75;34.00;;;;;;;;5077251;28;45488;-50
2021/12/20 06:20:19;;;;;;;;;31.75;29.25;;;;;;;;5075756;28;45477;-52
2021/12/20 06:22:44;;;;;;;;;31.75;30.50;;;;;;;;5076931;28;45470;-51
2021/12/20 06:25:09;;;;;;;;;27.50;24.50;;;;;;;;5076627;28;45372;-50
2021/12/20 06:27:34;;;;;;;;;29.75;28.75;;;;;;;;5077121;28;45438;-53
2021/12/20 06:30:00;;;;;;;;;34.00;30.00;;;;;;;;5077047;28;45333;-56
2021/12/20 06:32:25;;;;;;;;;27.50;25.00;;;;;;;;5076955;28;46208;-55
2021/12/20 06:34:50;;;;;;;;;30.25;23.75;;;;;;;;5076503;28;45323;-54
2021/12/20 06:37:15;;;;;;;;;30.25;24.75;;;;;;;;5076994;28;45281;-52
2021/12/20 06:39:40;;;;;;;;;29.00;24.25;;;;;;;;5076861;28;45306;-54
2021/12/20 06:42:06;;;;;;;;;24.00;23.25;;;;;;;;5076763;28;45475;-55
2021/12/20 06:44:31;;;;;;;;;28.25;23.25;;;;;;;;5076802;27;45266;-48
2021/12/20 06:46:57;;;;;;;;;33.75;30.50;;;;;;;;5076367;28;45306;-50
2021/12/20 06:49:22;;;;;;;;;30.25;24.50;;;;;;;;5076978;27;45318;-51
2021/12/20 06:51:48;;;;;;;;;33.25;29.75;;;;;;;;5076646;27;45320;-56
2021/12/20 06:54:15;;;;;;;;;25.00;20.25;;;;;;;;5076468;28;45305;-50
2021/12/20 06:56:40;;;;;;;;;30.25;27.50;;;;;;;;5076112;27;45247;-55
2021/12/20 06:59:05;;;;;;;;;30.25;26.00;;;;;;;;5076734;27;45504;-51
2021/12/20 07:01:31;;;;;;;;;31.75;30.00;;;;;;;;5076413;27;45262;-50
2021/12/20 07:03:56;;;;;;;;;35.00;29.00;;;;;;;;5076510;28;45326;-54
2021/12/20 07:06:21;;;;;;;;;32.25;26.75;;;;;;;;5079260;28;45357;-51
2021/12/20 07:08:46;;;;;;;;;31.75;26.25;;;;;;;;5079351;28;45173;-53
2021/12/20 07:11:12;;;;;;;;;37.00;28.50;;;;;;;;5079687;28;45894;-54
2021/12/20 07:13:38;;;;;;;;;26.75;25.00;;;;;;;;5079878;28;45210;-55
2021/12/20 07:16:03;;;;;;;;;35.00;31.50;;;;;;;;5079981;27;45161;-51
2021/12/20 07:18:28;;;;;;;;;36.50;32.25;;;;;;;;5079131;28;45165;-52
2021/12/20 07:20:53;;;;;;;;;34.75;30.00;;;;;;;;5079578;28;45343;-53
2021/12/20 07:23:19;;;;;;;;;32.25;30.50;;;;;;;;5079761;28;45235;-54
2021/12/20 07:25:44;;;;;;;;;35.50;31.00;;;;;;;;5079967;28;45206;-52
2021/12/20 07:28:09;;;;;;;;;28.75;26.50;;;;;;;;5079858;28;45220;-53
2021/12/20 07:30:35;;;;;;;;;29.50;28.50;;;;;;;;5078830;28;45302;-53
2021/12/20 07:33:01;;;;;;;;;38.25;28.25;;;;;;;;5079678;27;45440;-54
2021/12/20 07:35:27;;;;;;;;;36.25;32.00;;;;;;;;5079569;27;45429;-53
2021/12/20 07:37:54;;;;;;;;;34.25;33.00;;;;;;;;5079624;27;45377;-53
2021/12/20 07:40:19;;;;;;;;;34.50;32.75;;;;;;;;5078663;27;46181;-54
2021/12/20 07:42:44;;;;;;;;;31.75;28.50;;;;;;;;5079016;28;45369;-50
2021/12/20 07:45:10;;;;;;;;;35.25;31.25;;;;;;;;5079516;28;45275;-54
2021/12/20 07:47:35;;;;;;;;;39.25;31.00;;;;;;;;5079483;27;45467;-49
2021/12/20 07:50:01;;;;;;;;;41.00;37.25;;;;;;;;5079342;27;45262;-53
2021/12/20 07:52:26;;;;;;;;;38.00;30.25;;;;;;;;5078657;28;45267;-54
2021/12/20 07:54:51;;;;;;;;;38.00;34.25;;;;;;;;5079190;28;45272;-48
2021/12/20 07:57:16;;;;;;;;;36.75;34.00;;;;;;;;5079240;28;45319;-55
2021/12/20 07:59:41;;;;;;;;;30.75;27.25;;;;;;;;5079316;28;45317;-54
2021/12/20 08:02:07;;;;;;;;;30.50;25.75;;;;;;;;5079016;27;45261;-54
2021/12/20 08:04:32;;;;;;;;;33.50;30.00;;;;;;;;5079348;27;45327;-51
2021/12/20 08:06:58;;;;;;;;;34.75;28.00;;;;;;;;5079322;28;45350;-56
2021/12/20 08:09:23;;;;;;;;;29.00;27.00;;;;;;;;5079097;28;45413;-53
2021/12/20 08:11:48;;;;;;;;;31.50;30.75;;;;;;;;5078856;28;45215;-52
2021/12/20 08:14:13;;;;;;;;;28.75;25.50;;;;;;;;5078781;28;45309;-54
2021/12/20 08:16:39;;;;;;;;;32.00;29.00;;;;;;;;5078530;28;45155;-53
2021/12/20 08:19:04;;;;;;;;;31.50;25.50;;;;;;;;5078942;28;45342;-50
2021/12/20 08:21:29;;;;;;;;;31.00;28.00;;;;;;;;5078854;27;45361;-54
2021/12/20 08:23:54;;;;;;;;;27.50;27.50;;;;;;;;5079069;28;45358;-55
2021/12/20 08:26:20;;;;;;;;;27.25;26.25;;;;;;;;5078740;28;45489;-53
2021/12/20 08:28:45;;;;;;;;;33.25;28.75;;;;;;;;5078849;27;46090;-54
2021/12/20 08:31:10;;;;;;;;;34.75;29.00;;;;;;;;5078964;28;45477;-53
2021/12/20 08:33:36;;;;;;;;;39.50;32.50;;;;;;;;5079052;27;45303;-52
2021/12/20 08:36:05;;;;;;;;;64.25;52.00;;;;;;;;5078358;27;45314;-52
2021/12/20 08:38:31;;;;;;;;;39.75;31.00;;;;;;;;5078610;27;45427;-54
2021/12/20 08:40:57;;;;;;;;;35.00;32.50;;;;;;;;5078638;27;45299;-54
2021/12/20 08:43:22;;;;;;;;;27.25;24.75;;;;;;;;5078389;27;45484;-52
2021/12/20 08:45:47;;;;;;;;;39.50;29.75;;;;;;;;5078563;28;45497;-52
2021/12/20 08:48:12;;;;;;;;;31.25;27.00;;;;;;;;5077861;28;46710;-54
2021/12/20 08:50:38;;;;;;;;;33.25;28.75;;;;;;;;5078303;28;45458;-50
2021/12/20 08:53:04;;;;;;;;;38.75;30.50;;;;;;;;5078099;27;45382;-54
2021/12/20 08:55:29;;;;;;;;;30.00;26.50;;;;;;;;5077846;28;45222;-51
2021/12/20 08:57:54;;;;;;;;;31.00;26.75;;;;;;;;5077425;28;45374;-56
2021/12/20 09:00:21;;;;;;;;;29.75;27.00;;;;;;;;5077784;27;45347;-53
2021/12/20 09:02:47;;;;;;;;;38.75;30.75;;;;;;;;5078201;27;45448;-52
2021/12/20 09:05:12;;;;;;;;;38.25;28.50;;;;;;;;5077933;28;45517;-53
2021/12/20 09:07:40;;;;;;;;;36.00;33.00;;;;;;;;5078332;28;45294;-54
2021/12/20 09:10:06;;;;;;;;;38.25;28.25;;;;;;;;5077214;27;45339;-55
2021/12/20 09:12:31;;;;;;;;;26.50;23.00;;;;;;;;5077715;27;45436;-53
2021/12/20 09:14:56;;;;;;;;;31.75;30.25;;;;;;;;5077959;28;45207;-53
2021/12/20 09:17:21;;;;;;;;;26.00;23.00;;;;;;;;5077551;28;46220;-55
2021/12/20 09:19:46;;;;;;;;;36.25;32.75;;;;;;;;5077316;28;45195;-51
2021/12/20 09:22:12;;;;;;;;;32.75;30.25;;;;;;;;5077903;28;45247;-47
2021/12/20 09:24:38;;;;;;;;;30.75;30.50;;;;;;;;5077945;28;45215;-53
2021/12/20 09:27:04;;;;;;;;;28.75;25.25;;;;;;;;5076660;27;45383;-53
2021/12/20 09:29:29;;;;;;;;;30.25;26.75;;;;;;;;5077144;27;45233;-53
2021/12/20 09:31:55;;;;;;;;;36.25;32.00;;;;;;;;5077347;27;45344;-55
2021/12/20 09:34:20;;;;;;;;;32.00;29.00;;;;;;;;5077829;27;45278;-55
2021/12/20 09:36:45;;;;;;;;;35.50;31.00;;;;;;;;5077424;28;45263;-56
2021/12/20 09:39:11;;;;;;;;;28.25;26.25;;;;;;;;5077558;28;45341;-53
2021/12/20 09:44:06;;;;;;;;;29.25;26.25;;;;;;;;5077681;27;45438;-56
2021/12/20 09:46:32;;;;;;;;;30.50;25.50;;;;;;;;5077123;27;46342;-54
2021/12/20 09:48:58;;;;;;;;;33.75;33.25;;;;;;;;5077224;27;45367;-54
2021/12/20 09:51:23;;;;;;;;;37.00;29.75;;;;;;;;5077299;27;45251;-55
2021/12/20 09:53:48;;;;;;;;;36.25;34.50;;;;;;;;5076961;27;45584;-51
2021/12/20 09:56:14;;;;;;;;;35.00;31.75;;;;;;;;5077192;28;45279;-53
2021/12/20 09:58:40;;;;;;;;;29.00;27.00;;;;;;;;5077109;27;45366;-54
2021/12/20 10:01:07;;;;;;;;;32.25;30.50;;;;;;;;5077334;27;45432;-54
2021/12/20 10:03:32;;;;;;;;;32.75;29.25;;;;;;;;5076616;27;45343;-52
2021/12/20 10:05:58;;;;;;;;;37.50;30.75;;;;;;;;5076956;27;46553;-52
2021/12/20 10:08:35;;;;;;;;;30.00;25.25;;;;;;;;5076866;27;45328;-52
2021/12/20 10:11:03;;;;;;;;;27.00;26.50;;;;;;;;5076858;27;45491;-53
2021/12/20 10:13:31;;;;;;;;;24.25;24.25;;;;;;;;5077026;27;45191;-54
2021/12/20 10:15:56;;;;;;;;;25.50;22.25;;;;;;;;5075885;27;46253;-53
2021/12/20 10:18:24;;;;;;;;;30.00;21.25;;;;;;;;5076329;27;45290;-51
2021/12/20 10:20:51;;;;;;;;;29.50;27.25;;;;;;;;5076875;27;45400;-56
2021/12/20 10:23:21;;;;;;;;;33.50;30.75;;;;;;;;5076917;27;45468;-53
2021/12/20 10:25:47;;;;;;;;;31.25;27.75;;;;;;;;5076055;27;45499;-55
2021/12/20 10:28:14;;;;;;;;;32.50;27.75;;;;;;;;5076727;27;45336;-55
2021/12/20 10:30:41;;;;;;;;;26.50;25.25;;;;;;;;5076653;27;45407;-55
2021/12/20 10:33:14;;;;;;;;;30.50;29.50;;;;;;;;5076679;27;45501;-56
2021/12/20 10:35:41;;;;;;;;;24.00;21.75;;;;;;;;5076074;27;45296;-51
2021/12/20 10:38:19;;;;;;;;;32.00;27.50;;;;;;;;5076090;27;45294;-56
2021/12/20 10:40:49;;;;;;;;;20.00;15.50;;;;;;;;5076773;27;45290;-51
2021/12/20 10:43:17;;;;;;;;;25.75;23.50;;;;;;;;5076502;28;45588;-54
2021/12/20 10:45:42;;;;;;;;;24.50;21.75;;;;;;;;5076417;27;45948;-53
2021/12/20 10:48:09;;;;;;;;;21.25;21.25;;;;;;;;5075970;28;45234;-52
2021/12/20 10:50:42;;;;;;;;;23.75;22.50;;;;;;;;5076447;27;45418;-54
2021/12/20 10:53:13;;;;;;;;;20.00;19.75;;;;;;;;5076495;27;45306;-54
2021/12/20 10:55:40;;;;;;;;;19.50;19.50;;;;;;;;5076026;28;46727;-55
2021/12/20 10:58:28;;;;;;;;;20.25;20.25;;;;;;;;5075997;28;45276;-54
2021/12/20 11:01:32;;;;;;;;;20.00;18.75;;;;;;;;5076250;27;45438;-49
2021/12/20 11:04:10;;;;;;;;;19.75;19.00;;;;;;;;5069970;28;45504;-52
2021/12/20 11:06:56;;;;;;;;;10.00;10.00;;;;;;;;5075872;27;45386;-54
2021/12/20 11:09:21;;;;;;;;;20.50;20.50;;;;;;;;5075443;27;45354;-55
2021/12/20 11:11:54;;;;;;;;;23.50;16.00;;;;;;;;5075745;27;45245;-53
2021/12/20 11:14:21;;;;;;;;;16.50;16.50;;;;;;;;5076275;27;45381;-53
2021/12/20 11:16:49;;;;;;;;;18.50;14.75;;;;;;;;5075826;27;46595;-54
2021/12/20 11:19:20;;;;;;;;;15.25;12.75;;;;;;;;5076022;28;45441;-54
2021/12/20 11:21:50;;;;;;;;;16.50;14.50;;;;;;;;5075523;28;45329;-51
2021/12/20 11:24:19;;;;;;;;;15.75;15.75;;;;;;;;5075867;27;45501;-54
2021/12/20 11:26:45;;;;;;;;;19.75;16.00;;;;;;;;5073664;28;46560;-52
2021/12/20 11:29:10;;;;;;;;;31.25;24.50;;;;;;;;5075999;28;45466;-56
2021/12/20 11:31:37;;;;;;;;;20.50;15.50;;;;;;;;5075447;27;45391;-50
2021/12/20 11:34:03;;;;;;;;;24.50;19.50;;;;;;;;5075886;27;45299;-53
2021/12/20 11:36:28;;;;;;;;;18.00;16.25;;;;;;;;5075308;27;46195;-53
2021/12/20 11:38:53;;;;;;;;;15.00;15.00;;;;;;;;5075673;28;45501;-54
2021/12/20 11:41:18;;;;;;;;;22.25;18.75;;;;;;;;5075446;27;45265;-54
2021/12/20 11:43:45;;;;;;;;;24.25;19.25;;;;;;;;5075050;28;45192;-56
2021/12/20 11:46:12;;;;;;;;;15.75;13.25;;;;;;;;5074021;28;45883;-53
2021/12/20 11:48:37;;;;;;;;;20.00;18.00;;;;;;;;5075380;27;45169;-48
2021/12/20 11:51:03;;;;;;;;;16.00;16.00;;;;;;;;5076595;27;45239;-54
2021/12/20 11:53:34;;;;;;;;;23.50;16.50;;;;;;;;5078298;27;45240;-51
2021/12/20 11:55:59;;;;;;;;;21.50;21.50;;;;;;;;5078908;27;46407;-51
2021/12/20 11:58:25;;;;;;;;;27.75;22.25;;;;;;;;5078944;27;45392;-54
2021/12/20 12:00:52;;;;;;;;;19.25;19.25;;;;;;;;5079093;27;45345;-52
2021/12/20 12:03:18;;;;;;;;;21.00;19.25;;;;;;;;5079085;27;45398;-54
2021/12/20 12:05:46;;;;;;;;;22.75;19.75;;;;;;;;5078234;28;46210;-56
2021/12/20 12:08:30;;;;;;;;;22.75;19.75;;;;;;;;5078969;28;45299;-56
2021/12/20 12:10:57;;;;;;;;;20.25;18.50;;;;;;;;5078613;28;45286;-53
2021/12/20 12:13:25;;;;;;;;;24.50;18.00;;;;;;;;5078711;27;45257;-54
2021/12/20 12:15:52;;;;;;;;;23.00;20.00;;;;;;;;5078120;27;45306;-55
2021/12/20 12:18:18;;;;;;;;;24.25;21.00;;;;;;;;5078478;27;45192;-55
2021/12/20 12:20:53;;;;;;;;;24.75;22.25;;;;;;;;5078641;27;45293;-53
2021/12/20 12:23:20;;;;;;;;;28.00;23.75;;;;;;;;5078687;27;45173;-50
2021/12/20 12:25:49;;;;;;;;;21.00;19.75;;;;;;;;5076843;28;45768;-53
2021/12/20 12:28:15;;;;;;;;;23.00;20.25;;;;;;;;5077938;28;45303;-51
2021/12/20 12:30:42;;;;;;;;;19.75;18.00;;;;;;;;5078302;28;45322;-55
2021/12/20 12:33:13;;;;;;;;;24.00;22.75;;;;;;;;5078491;27;45248;-52
2021/12/20 12:35:49;;;;;;;;;23.25;20.50;;;;;;;;5078392;28;45496;-49
2021/12/20 12:38:19;;;;;;;;;31.00;31.00;;;;;;;;5077761;27;45243;-53
2021/12/20 12:41:19;;;;;;;;;28.00;25.50;;;;;;;;5078348;28;45352;-47
2021/12/20 12:43:44;;;;;;;;;20.00;19.00;;;;;;;;5055345;28;45649;-53
2021/12/20 12:46:10;;;;;;;;;27.80;20.40;;;;;;;;5078211;28;45400;-54
2021/12/20 12:48:35;;;;;;;;;24.00;21.50;;;;;;;;5077756;28;45288;-53
2021/12/20 12:51:04;;;;;;;;;33.20;30.80;;;;;;;;5078828;28;45333;-54
2021/12/20 12:53:40;;;;;;;;;36.00;31.50;;;;;;;;5078513;27;45378;-55
2021/12/20 12:56:27;;;;;;;;;19.50;18.00;;;;;;;;5078024;27;45287;-50
2021/12/20 12:59:11;;;;;;;;;40.75;38.00;;;;;;;;5078027;28;45349;-52
2021/12/20 13:01:40;;;;;;;;;22.75;19.25;;;;;;;;5077282;28;45377;-53
2021/12/20 13:04:05;;;;;;;;;20.25;19.25;;;;;;;;5077322;27;45393;-53
2021/12/20 13:06:30;;;;;;;;;28.75;24.25;;;;;;;;5077815;28;46251;-52
2021/12/20 13:08:59;;;;;;;;;21.50;20.50;;;;;;;;5078030;28;45435;-53
2021/12/20 13:11:25;;;;;;;;;21.50;19.50;;;;;;;;5077493;27;45369;-55
2021/12/20 13:14:05;;;;;;;;;18.50;13.75;;;;;;;;5078085;27;45439;-53
2021/12/20 13:16:30;;;;;;;;;19.25;16.50;;;;;;;;5077835;27;46311;-55
2021/12/20 13:18:58;;;;;;;;;17.50;16.50;;;;;;;;5077725;28;45242;-55
2021/12/20 13:21:36;;;;;;;;;15.00;13.50;;;;;;;;5076210;28;45438;-52
2021/12/20 13:24:12;;;;;;;;;18.00;17.00;;;;;;;;5077641;28;45334;-55
2021/12/20 13:26:37;;;;;;;;;21.25;15.50;;;;;;;;5077645;27;45601;-52
2021/12/20 13:29:03;;;;;;;;;20.00;19.00;;;;;;;;5077468;28;45464;-55
2021/12/20 13:31:28;;;;;;;;;17.00;17.00;;;;;;;;5077799;27;45316;-52
2021/12/20 13:33:59;;;;;;;;;23.75;20.25;;;;;;;;5075948;28;45458;-50
2021/12/20 13:36:27;;;;;;;;;18.00;15.25;;;;;;;;5077539;28;46226;-52
2021/12/20 13:38:54;;;;;;;;;22.25;20.25;;;;;;;;5077530;27;45557;-54
2021/12/20 13:41:23;;;;;;;;;19.25;17.25;;;;;;;;5077659;28;45353;-56
2021/12/20 13:43:53;;;;;;;;;17.50;16.75;;;;;;;;5076752;28;45362;-52
2021/12/20 13:46:39;;;;;;;;;20.00;16.00;;;;;;;;5075584;28;47811;-50
2021/12/20 13:49:09;;;;;;;;;17.50;16.00;;;;;;;;5075607;28;45270;-50
2021/12/20 13:51:43;;;;;;;;;19.25;16.50;;;;;;;;5077584;28;45363;-54
2021/12/20 13:54:27;;;;;;;;;23.50;20.50;;;;;;;;5076946;28;45236;-51
2021/12/20 13:56:52;;;;;;;;;19.00;16.25;;;;;;;;5077125;28;46058;-53
2021/12/20 13:59:22;;;;;;;;;21.75;18.50;;;;;;;;5077322;28;45438;-52
2021/12/20 14:01:47;;;;;;;;;13.75;13.00;;;;;;;;5076071;27;45362;-51
2021/12/20 14:04:24;;;;;;;;;21.00;17.50;;;;;;;;5077305;28;45441;-54
2021/12/20 14:06:49;;;;;;;;;19.50;17.50;;;;;;;;5076926;28;46549;-48
2021/12/20 14:09:22;;;;;;;;;22.25;18.50;;;;;;;;5077332;28;45497;-49
2021/12/20 14:11:47;;;;;;;;;16.75;15.75;;;;;;;;5077345;27;45247;-53
2021/12/20 14:14:13;;;;;;;;;22.00;19.00;;;;;;;;5076819;27;45422;-55
2021/12/20 14:16:56;;;;;;;;;16.75;13.50;;;;;;;;5076289;28;45409;-54
2021/12/20 14:19:42;;;;;;;;;18.75;18.75;;;;;;;;5077083;28;45338;-53
2021/12/20 14:22:07;;;;;;;;;17.00;14.00;;;;;;;;5075210;28;45329;-51
2021/12/20 14:24:38;;;;;;;;;17.50;17.50;;;;;;;;5077138;28;45353;-55
2021/12/20 14:27:04;;;;;;;;;13.75;13.25;;;;;;;;5076929;27;46410;-55
2021/12/20 14:29:32;;;;;;;;;18.75;17.50;;;;;;;;5076812;28;45255;-50